createdAt,value
2023-11-02T00:01:35.221Z,1.40
2023-11-02T00:04:13.530Z,1.48
2023-11-02T00:06:45.819Z,1.20
2023-11-02T00:09:40.519Z,1.50
2023-11-02T00:12:19.720Z,1.20
2023-11-02T00:14:59.556Z,1.50
2023-11-02T00:17:34.770Z,1.42
2023-11-02T00:20:15.445Z,1.50
2023-11-02T00:22:48.142Z,1.48
2023-11-02T00:25:50.663Z,1.35
2023-11-02T00:28:22.947Z,1.17
2023-11-02T00:31:01.444Z,1.80
2023-11-02T00:33:40.640Z,1.67
2023-11-02T00:36:19.523Z,1.30
2023-11-02T00:38:56.416Z,1.30
2023-11-02T00:41:35.468Z,1.60
2023-11-02T00:44:07.818Z,1.42
2023-11-02T00:46:46.477Z,1.50
2023-11-02T00:49:30.973Z,1.63
2023-11-02T00:52:10.483Z,1.48
2023-11-02T00:54:45.713Z,1.63
2023-11-02T00:57:28.480Z,1.23
2023-11-02T01:00:00.657Z,1.20
2023-11-02T01:02:42.645Z,1.08
2023-11-02T01:05:28.344Z,0.90
2023-11-02T01:08:07.452Z,1.10
2023-11-02T01:10:39.750Z,1.45
2023-11-02T01:13:25.485Z,1.00
2023-11-02T01:16:08.670Z,1.40
2023-11-02T01:18:52.582Z,0.90
2023-11-02T01:21:25.135Z,1.42
2023-11-02T01:24:09.559Z,0.98
2023-11-02T01:26:58.904Z,1.02
2023-11-02T01:29:38.556Z,1.52
2023-11-02T01:32:12.843Z,1.00
2023-11-02T01:34:51.587Z,1.45
2023-11-02T01:37:25.789Z,1.75
2023-11-02T01:40:13.651Z,1.30
2023-11-02T01:42:45.795Z,1.30
2023-11-02T01:45:35.533Z,1.35
2023-11-02T01:48:13.555Z,1.20
2023-11-02T01:50:59.534Z,1.10
2023-11-02T01:53:46.360Z,1.50
2023-11-02T01:56:54.673Z,1.58
2023-11-02T01:59:56.597Z,1.40
2023-11-02T02:03:24.554Z,1.65
2023-11-02T02:06:45.979Z,1.38
2023-11-02T02:09:30.578Z,1.42
2023-11-02T02:12:22.431Z,1.73
2023-11-02T02:15:29.584Z,1.73
2023-11-02T02:18:20.394Z,2.13
2023-11-02T02:21:04.512Z,1.85
2023-11-02T02:23:53.595Z,1.83
2023-11-02T02:26:50.583Z,1.70
2023-11-02T02:29:28.506Z,2.10
2023-11-02T02:32:39.666Z,1.98
2023-11-02T02:35:19.074Z,1.75
2023-11-02T02:38:03.658Z,1.60
2023-11-02T02:40:40.528Z,1.33
2023-11-02T02:43:21.564Z,1.73
2023-11-02T02:45:55.510Z,1.20
2023-11-02T02:48:36.546Z,1.25
2023-11-02T02:51:09.762Z,1.40
2023-11-02T02:53:50.544Z,1.50
2023-11-02T02:56:26.378Z,1.20
2023-11-02T02:59:14.635Z,1.30
2023-11-02T03:01:48.628Z,1.30
2023-11-02T03:04:28.659Z,1.63
2023-11-02T03:07:02.590Z,1.40
2023-11-02T03:09:45.640Z,1.30
2023-11-02T03:12:27.467Z,1.20
2023-11-02T03:15:12.649Z,1.40
2023-11-02T03:18:10.418Z,1.67
2023-11-02T03:20:49.795Z,1.80
2023-11-02T03:23:53.114Z,1.43
2023-11-02T03:26:50.755Z,1.70
2023-11-02T03:29:57.596Z,1.40
2023-11-02T03:32:56.957Z,1.75
2023-11-02T03:36:06.768Z,1.80
2023-11-02T03:39:03.779Z,1.70
2023-11-02T03:42:12.836Z,2.07
2023-11-02T03:45:22.721Z,1.80
2023-11-02T03:48:09.757Z,1.40
2023-11-02T03:50:51.653Z,1.63
2023-11-02T03:53:42.371Z,1.33
2023-11-02T03:56:42.720Z,1.60
2023-11-02T03:59:32.804Z,2.53
2023-11-02T04:02:18.772Z,1.40
2023-11-02T04:05:15.171Z,1.67
2023-11-02T04:08:24.729Z,1.60
2023-11-02T04:10:58.019Z,1.60
2023-11-02T04:13:55.808Z,1.63
2023-11-02T04:16:28.123Z,1.50
2023-11-02T04:19:06.877Z,1.43
2023-11-02T04:21:39.209Z,1.50
2023-11-02T04:24:17.822Z,1.30
2023-11-02T04:26:50.120Z,1.37
2023-11-02T04:29:28.808Z,1.50
2023-11-02T04:32:02.933Z,1.63
2023-11-02T04:34:42.042Z,1.83
2023-11-02T04:37:18.037Z,2.10
2023-11-02T04:39:56.784Z,3.03
2023-11-02T04:42:29.097Z,2.10
2023-11-02T04:45:07.852Z,1.97
2023-11-02T04:47:40.154Z,1.70
2023-11-02T04:50:18.802Z,1.83
2023-11-02T04:52:51.656Z,1.80
2023-11-02T04:55:30.807Z,1.80
2023-11-02T04:58:03.129Z,2.00
2023-11-02T05:00:41.860Z,1.90
2023-11-02T05:03:14.415Z,2.20
2023-11-02T05:05:53.795Z,3.27
2023-11-02T05:08:26.173Z,3.43
2023-11-02T05:11:04.720Z,4.33
2023-11-02T05:13:37.168Z,2.93
2023-11-02T05:16:16.729Z,2.70
2023-11-02T05:18:49.087Z,3.73
2023-11-02T05:21:28.052Z,3.40
2023-11-02T05:24:00.451Z,3.43
2023-11-02T05:26:39.841Z,2.87
2023-11-02T05:29:12.164Z,2.93
2023-11-02T05:31:50.942Z,3.33
2023-11-02T05:34:23.631Z,3.30
2023-11-02T05:37:02.802Z,3.80
2023-11-02T05:39:35.373Z,3.30
2023-11-02T05:42:14.778Z,3.27
2023-11-02T05:44:46.967Z,3.30
2023-11-02T05:47:25.922Z,3.00
2023-11-02T05:49:58.707Z,2.60
2023-11-02T05:52:37.806Z,3.30
2023-11-02T05:55:10.315Z,4.70
2023-11-02T05:57:48.792Z,5.53
2023-11-02T06:00:21.230Z,8.70
2023-11-02T06:02:59.899Z,8.23
2023-11-02T06:05:32.287Z,7.73
2023-11-02T06:08:10.802Z,5.40
2023-11-02T06:10:43.518Z,5.53
2023-11-02T06:13:22.808Z,4.50
2023-11-02T06:15:55.121Z,4.20
2023-11-02T06:18:33.742Z,3.93
2023-11-02T06:21:06.599Z,4.43
2023-11-02T06:23:45.760Z,4.00
2023-11-02T06:26:18.000Z,5.07
2023-11-02T06:28:56.836Z,4.40
2023-11-02T06:31:29.117Z,4.17
2023-11-02T06:34:07.864Z,3.47
2023-11-02T06:36:40.300Z,3.37
2023-11-02T06:39:18.817Z,4.07
2023-11-02T06:41:53.115Z,3.77
2023-11-02T06:44:32.873Z,3.10
2023-11-02T06:47:05.273Z,3.33
2023-11-02T06:49:43.840Z,3.67
2023-11-02T06:52:16.218Z,3.63
2023-11-02T06:54:54.799Z,3.17
2023-11-02T06:57:27.299Z,3.00
2023-11-02T07:00:05.812Z,3.42
2023-11-02T07:02:38.964Z,3.30
2023-11-02T07:05:17.896Z,3.40
2023-11-02T07:07:50.122Z,3.63
2023-11-02T07:10:28.831Z,3.70
2023-11-02T07:13:01.063Z,4.05
2023-11-02T07:15:39.821Z,3.92
2023-11-02T07:18:12.118Z,3.08
2023-11-02T07:20:50.794Z,3.15
2023-11-02T07:23:23.033Z,3.28
2023-11-02T07:26:01.961Z,4.03
2023-11-02T07:28:34.159Z,3.70
2023-11-02T07:31:13.770Z,2.97
2023-11-02T07:33:46.217Z,2.72
2023-11-02T07:36:26.473Z,2.85
2023-11-02T07:38:58.951Z,3.05
2023-11-02T07:41:37.793Z,2.53
2023-11-02T07:44:10.004Z,3.45
2023-11-02T07:46:48.833Z,3.10
2023-11-02T07:49:21.287Z,6.22
2023-11-02T07:51:59.780Z,3.70
2023-11-02T07:54:39.320Z,3.70
2023-11-02T07:57:17.848Z,3.70
2023-11-02T07:59:50.142Z,2.97
2023-11-02T08:02:28.794Z,3.30
2023-11-02T08:05:01.143Z,3.45
2023-11-02T08:07:39.802Z,3.50
2023-11-02T08:10:12.116Z,2.92
2023-11-02T08:12:50.880Z,2.75
2023-11-02T08:15:23.145Z,3.20
2023-11-02T08:18:01.857Z,3.05
2023-11-02T08:20:34.174Z,3.25
2023-11-02T08:23:12.761Z,3.17
2023-11-02T08:25:44.914Z,4.22
2023-11-02T08:28:23.873Z,2.78
2023-11-02T08:30:55.954Z,2.72
2023-11-02T08:33:34.873Z,2.88
2023-11-02T08:36:14.700Z,3.17
2023-11-02T08:38:53.851Z,2.85
2023-11-02T08:41:28.036Z,2.80
2023-11-02T08:44:06.995Z,3.17
2023-11-02T08:46:39.234Z,3.85
2023-11-02T08:49:17.885Z,3.47
2023-11-02T08:51:50.191Z,2.75
2023-11-02T08:54:28.791Z,2.67
2023-11-02T08:57:00.994Z,3.25
2023-11-02T08:59:39.873Z,2.60
2023-11-02T09:02:12.173Z,2.30
2023-11-02T09:04:50.884Z,2.22
2023-11-02T09:07:23.210Z,2.38
2023-11-02T09:10:02.051Z,2.67
2023-11-02T09:12:34.309Z,2.33
2023-11-02T09:15:13.975Z,2.53
2023-11-02T09:17:46.370Z,2.03
2023-11-02T09:20:24.841Z,1.75
2023-11-02T09:22:57.041Z,2.60
2023-11-02T09:25:35.845Z,2.40
2023-11-02T09:28:08.035Z,2.13
2023-11-02T09:30:47.096Z,1.77
2023-11-02T09:33:19.349Z,1.85
2023-11-02T09:35:57.964Z,2.20
2023-11-02T09:38:30.161Z,2.33
2023-11-02T09:41:08.858Z,2.35
2023-11-02T09:43:41.563Z,2.38
2023-11-02T09:46:21.931Z,2.00
2023-11-02T09:48:54.372Z,1.80
2023-11-02T09:51:33.968Z,2.53
2023-11-02T09:54:06.580Z,1.48
2023-11-02T09:56:47.059Z,1.80
2023-11-02T09:59:19.615Z,1.67
2023-11-02T10:01:58.953Z,1.92
2023-11-02T10:04:31.071Z,2.28
2023-11-02T10:07:09.880Z,2.70
2023-11-02T10:09:42.064Z,2.65
2023-11-02T10:12:20.947Z,2.50
2023-11-02T10:14:53.297Z,2.55
2023-11-02T10:17:31.919Z,2.25
2023-11-02T10:20:15.274Z,1.92
2023-11-02T10:23:08.842Z,2.33
2023-11-02T10:25:41.154Z,2.40
2023-11-02T10:28:22.994Z,2.67
2023-11-02T10:30:59.147Z,2.55
2023-11-02T10:33:37.977Z,3.25
2023-11-02T10:36:10.424Z,2.95
2023-11-02T10:38:48.861Z,3.05
2023-11-02T10:41:21.070Z,2.83
2023-11-02T10:44:03.872Z,2.72
2023-11-02T10:46:36.761Z,3.00
2023-11-02T10:49:19.086Z,2.20
2023-11-02T10:51:53.960Z,3.00
2023-11-02T10:54:44.196Z,3.50
2023-11-02T10:57:18.669Z,3.35
2023-11-02T10:59:57.880Z,3.05
2023-11-02T11:02:31.313Z,2.97
2023-11-02T11:05:11.036Z,3.80
2023-11-02T11:07:44.844Z,3.33
2023-11-02T11:10:24.006Z,3.17
2023-11-02T11:12:56.750Z,2.70
2023-11-02T11:15:43.086Z,2.63
2023-11-02T11:18:16.810Z,3.47
2023-11-02T11:20:56.120Z,3.47
2023-11-02T11:23:28.456Z,2.67
2023-11-02T11:26:09.033Z,2.72
2023-11-02T11:28:41.323Z,2.92
2023-11-02T11:31:59.121Z,3.63
2023-11-02T11:34:57.381Z,2.97
2023-11-02T11:37:43.034Z,3.28
2023-11-02T11:40:21.478Z,2.70
2023-11-02T11:43:00.002Z,2.00
2023-11-02T11:45:45.789Z,2.17
2023-11-02T11:48:50.999Z,2.55
2023-11-02T11:51:36.141Z,2.20
2023-11-02T11:54:16.128Z,2.17
2023-11-02T11:56:48.489Z,2.15
2023-11-02T11:59:26.994Z,2.10
2023-11-02T12:02:33.426Z,2.10
2023-11-02T12:05:12.954Z,2.10
2023-11-02T12:07:45.608Z,2.10
2023-11-02T12:10:24.019Z,2.20
2023-11-02T12:12:57.481Z,2.30
2023-11-02T12:15:37.011Z,2.10
2023-11-02T12:18:09.250Z,2.72
2023-11-02T12:20:47.884Z,2.28
2023-11-02T12:23:20.362Z,2.22
2023-11-02T12:25:59.001Z,1.85
2023-11-02T12:28:50.062Z,2.65
2023-11-02T12:31:38.042Z,2.40
2023-11-02T12:34:12.094Z,2.30
2023-11-02T12:36:51.026Z,2.70
2023-11-02T12:39:23.396Z,7.10
2023-11-02T12:42:03.012Z,3.30
2023-11-02T12:44:45.241Z,2.90
2023-11-02T12:47:25.041Z,2.40
2023-11-02T12:49:57.468Z,2.60
2023-11-02T12:52:48.040Z,2.45
2023-11-02T12:55:20.319Z,2.83
2023-11-02T12:58:00.042Z,2.50
2023-11-02T13:00:32.667Z,3.25
2023-11-02T13:03:17.975Z,3.53
2023-11-02T13:05:50.211Z,3.40
2023-11-02T13:08:31.950Z,3.13
2023-11-02T13:11:04.279Z,3.03
2023-11-02T13:13:43.002Z,3.22
2023-11-02T13:16:15.159Z,2.85
2023-11-02T13:18:57.047Z,2.80
2023-11-02T13:21:29.406Z,2.67
2023-11-02T13:24:07.988Z,3.45
2023-11-02T13:26:40.571Z,2.67
2023-11-02T13:29:19.077Z,2.70
2023-11-02T13:31:51.312Z,3.15
2023-11-02T13:34:30.196Z,3.13
2023-11-02T13:37:02.430Z,3.30
2023-11-02T13:39:41.078Z,3.53
2023-11-02T13:42:13.407Z,3.92
2023-11-02T13:44:52.149Z,4.25
2023-11-02T13:47:24.527Z,3.92
2023-11-02T13:50:12.049Z,3.88
2023-11-02T13:52:44.351Z,3.85
2023-11-02T13:55:29.000Z,4.03
2023-11-02T13:58:01.328Z,4.10
2023-11-02T14:00:40.107Z,4.20
2023-11-02T14:03:12.866Z,4.30
2023-11-02T14:05:52.142Z,3.75
2023-11-02T14:08:24.959Z,4.18
2023-11-02T14:11:04.032Z,3.45
2023-11-02T14:13:36.519Z,3.75
2023-11-02T14:16:15.999Z,4.00
2023-11-02T14:18:48.229Z,3.58
2023-11-02T14:21:27.263Z,4.07
2023-11-02T14:23:59.440Z,3.20
2023-11-02T14:26:38.235Z,3.85
2023-11-02T14:29:10.519Z,4.35
2023-11-02T14:31:49.032Z,4.15
2023-11-02T14:34:21.236Z,3.70
2023-11-02T14:37:00.007Z,3.85
2023-11-02T14:39:32.419Z,3.17
2023-11-02T14:42:12.115Z,3.38
2023-11-02T14:44:44.634Z,3.80
2023-11-02T14:47:23.159Z,3.78
2023-11-02T14:49:56.065Z,3.35
2023-11-02T14:52:34.998Z,3.20
2023-11-02T14:55:07.606Z,3.90
2023-11-02T14:57:46.131Z,4.63
2023-11-02T15:00:18.832Z,4.93
2023-11-02T15:02:59.364Z,5.13
2023-11-02T15:05:31.735Z,4.75
2023-11-02T15:08:11.086Z,3.83
2023-11-02T15:10:43.762Z,4.40
2023-11-02T15:13:23.155Z,4.28
2023-11-02T15:15:55.658Z,3.88
2023-11-02T15:18:34.158Z,4.45
2023-11-02T15:21:12.022Z,3.88
2023-11-02T15:23:50.999Z,4.50
2023-11-02T15:26:23.485Z,4.32
2023-11-02T15:29:02.165Z,4.53
2023-11-02T15:31:34.599Z,4.45
2023-11-02T15:34:13.419Z,4.68
2023-11-02T15:36:45.670Z,4.60
2023-11-02T15:39:24.419Z,4.35
2023-11-02T15:41:56.687Z,4.32
2023-11-02T15:44:35.082Z,3.85
2023-11-02T15:47:07.240Z,4.75
2023-11-02T15:49:49.587Z,3.50
2023-11-02T15:52:22.043Z,3.25
2023-11-02T15:55:01.160Z,3.47
2023-11-02T15:57:33.482Z,3.30
2023-11-02T16:00:13.077Z,3.22
2023-11-02T16:02:45.970Z,2.95
2023-11-02T16:05:25.374Z,3.28
2023-11-02T16:07:57.595Z,3.40
2023-11-02T16:10:36.194Z,2.72
2023-11-02T16:13:08.392Z,3.50
2023-11-02T16:15:47.236Z,2.78
2023-11-02T16:18:20.206Z,3.15
2023-11-02T16:20:59.242Z,3.22
2023-11-02T16:23:32.161Z,3.00
2023-11-02T16:26:14.130Z,3.58
2023-11-02T16:28:46.551Z,3.08
2023-11-02T16:31:30.200Z,2.60
2023-11-02T16:34:02.415Z,3.15
2023-11-02T16:36:52.255Z,3.00
2023-11-02T16:39:24.569Z,3.30
2023-11-02T16:42:03.143Z,2.55
2023-11-02T16:44:35.359Z,2.42
2023-11-02T16:47:14.442Z,2.53
2023-11-02T16:49:46.686Z,3.17
2023-11-02T16:52:25.080Z,2.70
2023-11-02T16:54:57.382Z,2.78
2023-11-02T16:57:36.230Z,2.22
2023-11-02T17:00:09.441Z,2.97
2023-11-02T17:02:48.202Z,2.60
2023-11-02T17:05:20.485Z,2.42
2023-11-02T17:07:59.119Z,3.00
2023-11-02T17:10:31.438Z,3.80
2023-11-02T17:13:10.281Z,3.30
2023-11-02T17:15:42.733Z,2.92
2023-11-02T17:18:22.399Z,2.25
2023-11-02T17:20:54.640Z,2.58
2023-11-02T17:23:34.167Z,2.70
2023-11-02T17:26:06.793Z,2.88
2023-11-02T17:28:46.200Z,2.88
2023-11-02T17:31:18.355Z,3.13
2023-11-02T17:33:57.188Z,3.13
2023-11-02T17:36:29.634Z,3.00
2023-11-02T17:39:08.122Z,3.15
2023-11-02T17:41:43.528Z,3.03
2023-11-02T17:44:22.273Z,2.80
2023-11-02T17:46:54.568Z,2.92
2023-11-02T17:49:33.463Z,3.30
2023-11-02T17:52:06.083Z,3.63
2023-11-02T17:54:45.254Z,4.88
2023-11-02T17:57:17.760Z,4.53
2023-11-02T17:59:58.273Z,4.05
2023-11-02T18:02:30.936Z,3.85
2023-11-02T18:05:13.729Z,3.65
2023-11-02T18:07:46.761Z,3.42
2023-11-02T18:10:26.268Z,4.13
2023-11-02T18:12:59.252Z,4.15
2023-11-02T18:15:39.195Z,3.42
2023-11-02T18:18:11.481Z,3.40
2023-11-02T18:20:51.482Z,3.67
2023-11-02T18:23:25.250Z,3.60
2023-11-02T18:26:04.240Z,3.42
2023-11-02T18:28:37.042Z,2.88
2023-11-02T18:31:16.254Z,2.78
2023-11-02T18:33:48.861Z,2.70
2023-11-02T18:36:28.166Z,3.28
2023-11-02T18:39:00.841Z,2.92
2023-11-02T18:41:40.431Z,3.58
2023-11-02T18:44:13.446Z,3.40
2023-11-02T18:46:53.676Z,3.40
2023-11-02T18:49:27.141Z,2.88
2023-11-02T18:52:06.291Z,3.03
2023-11-02T18:54:39.069Z,2.80
2023-11-02T18:57:21.314Z,3.40
2023-11-02T18:59:55.410Z,3.22
2023-11-02T19:02:34.261Z,3.60
2023-11-02T19:05:08.837Z,2.97
2023-11-02T19:07:48.399Z,3.05
2023-11-02T19:10:21.001Z,3.58
2023-11-02T19:13:02.434Z,3.05
2023-11-02T19:15:38.358Z,2.85
2023-11-02T19:18:19.646Z,2.55
2023-11-02T19:20:55.537Z,2.70
2023-11-02T19:23:35.159Z,2.97
2023-11-02T19:26:07.600Z,3.20
2023-11-02T19:28:47.372Z,2.90
2023-11-02T19:31:19.879Z,2.85
2023-11-02T19:34:00.972Z,3.70
2023-11-02T19:36:43.963Z,2.92
2023-11-02T19:39:23.452Z,2.80
2023-11-02T19:41:55.950Z,3.10
2023-11-02T19:44:34.362Z,3.17
2023-11-02T19:47:06.758Z,3.45
2023-11-02T19:49:45.233Z,3.60
2023-11-02T19:52:17.600Z,3.83
2023-11-02T19:54:56.554Z,3.58
2023-11-02T19:57:29.571Z,3.58
2023-11-02T20:00:08.287Z,3.15
2023-11-02T20:02:47.082Z,3.50
2023-11-02T20:05:27.767Z,3.63
2023-11-02T20:08:00.388Z,4.03
2023-11-02T20:10:39.202Z,3.38
2023-11-02T20:13:11.520Z,3.30
2023-11-02T20:15:50.281Z,3.83
2023-11-02T20:18:22.616Z,3.28
2023-11-02T20:21:01.280Z,3.75
2023-11-02T20:23:33.476Z,3.85
2023-11-02T20:26:12.281Z,3.97
2023-11-02T20:28:44.660Z,3.60
2023-11-02T20:31:23.336Z,3.60
2023-11-02T20:33:55.693Z,3.90
2023-11-02T20:36:34.524Z,3.40
2023-11-02T20:39:06.883Z,4.95
2023-11-02T20:41:47.211Z,4.53
2023-11-02T20:44:19.546Z,3.70
2023-11-02T20:46:58.293Z,4.13
2023-11-02T20:49:30.623Z,4.28
2023-11-02T20:52:09.210Z,4.03
2023-11-02T20:54:41.989Z,4.32
2023-11-02T20:57:21.560Z,4.22
2023-11-02T20:59:54.286Z,4.13
2023-11-02T21:02:33.369Z,4.47
2023-11-02T21:05:06.090Z,3.35
2023-11-02T21:07:45.336Z,3.88
2023-11-02T21:10:17.560Z,3.10
2023-11-02T21:12:56.322Z,3.80
2023-11-02T21:15:28.632Z,3.75
2023-11-02T21:18:07.354Z,3.80
2023-11-02T21:20:39.663Z,3.70
2023-11-02T21:23:18.319Z,4.18
2023-11-02T21:25:50.592Z,3.80
2023-11-02T21:28:29.328Z,4.10
2023-11-02T21:31:01.728Z,4.40
2023-11-02T21:33:40.339Z,3.90
2023-11-02T21:36:12.602Z,4.80
2023-11-02T21:38:51.237Z,4.38
2023-11-02T21:41:23.444Z,4.00
2023-11-02T21:44:02.313Z,4.07
2023-11-02T21:46:34.722Z,3.97
2023-11-02T21:49:13.374Z,4.72
2023-11-02T21:51:46.036Z,4.40
2023-11-02T21:54:25.602Z,4.45
2023-11-02T21:56:57.888Z,4.40
2023-11-02T21:59:37.273Z,4.80
2023-11-02T22:02:09.624Z,4.45
2023-11-02T22:04:48.458Z,4.97
2023-11-02T22:07:20.798Z,4.47
2023-11-02T22:09:59.268Z,5.00
2023-11-02T22:12:31.602Z,4.20
2023-11-02T22:15:11.399Z,4.72
2023-11-02T22:17:44.049Z,4.53
2023-11-02T22:20:23.486Z,4.38
2023-11-02T22:22:55.844Z,4.85
2023-11-02T22:25:34.275Z,4.82
2023-11-02T22:28:06.483Z,4.72
2023-11-02T22:30:45.400Z,4.85
2023-11-02T22:33:17.761Z,4.65
2023-11-02T22:35:56.355Z,4.85
2023-11-02T22:38:28.635Z,4.30
2023-11-02T22:41:07.313Z,4.72
2023-11-02T22:43:39.881Z,4.93
2023-11-02T22:46:19.481Z,5.10
2023-11-02T22:48:51.895Z,4.28
2023-11-02T22:51:31.468Z,4.87
2023-11-02T22:54:03.922Z,5.03
2023-11-02T22:56:42.433Z,5.22
2023-11-02T22:59:14.687Z,5.05
2023-11-02T23:01:53.316Z,5.70
2023-11-02T23:04:25.697Z,4.68
2023-11-02T23:07:04.431Z,5.80
2023-11-02T23:09:36.602Z,5.70
2023-11-02T23:12:16.309Z,5.03
2023-11-02T23:14:48.452Z,5.60
2023-11-02T23:17:27.370Z,5.43
2023-11-02T23:19:59.555Z,5.65
2023-11-02T23:22:41.448Z,5.63
2023-11-02T23:25:13.669Z,5.20
2023-11-02T23:27:52.396Z,5.53
2023-11-02T23:30:24.762Z,5.05
2023-11-02T23:33:03.403Z,5.57
2023-11-02T23:35:35.834Z,5.38
2023-11-02T23:38:14.642Z,5.65
2023-11-02T23:40:47.193Z,5.97
2023-11-02T23:43:26.552Z,5.68
2023-11-02T23:45:58.853Z,5.82
2023-11-02T23:48:37.489Z,5.07
2023-11-02T23:51:09.718Z,5.47
2023-11-02T23:53:48.677Z,5.45
2023-11-02T23:56:21.345Z,5.70
2023-11-02T23:59:00.531Z,5.88
